Cardin, Oklahoma
Current Conditions -  °F | °C
As of 9:53 AM on Monday 26 Jan 2015 (Local Time) from KJLN Reporting Station
Clear Clear  
Wind Chill: 33°   Ceiling: Unl
Heat Index: 40°   Visibility: 10mi
Dew Point: 32°   Wind: 13mph
Humidity: 73%   Direction: 220°SW
Pressure: 30.07"   Gusts: NA
Location:  36.97°N, 94.85°W
Report Text: KJLN 261553Z 22011KT 10SM CLR 04/00 A3007 RMK AO2 SLP186 T00440000
Loading
Personal Weather Stations






























Interactive Weather Map New forecast layout! Learn more

10-Day Weather Forecast

Advertisements
Track Severe Weather on mobile